Terminal Aerodrome Forecast
Issued by NWS

Home | Current Version | Previous Version | Text Only | Print | Product List | Glossary On
Versions: 1 2 3 4 5 6 7 8 9 10 11 12 13 14 15 16 17 18 19 20 21 22 23 24 25 26 27 28 29 30 31 32 33 34 35 36 37 38 39 40 41 42
806
FTAK31 PAFA 310654 AAA
TAFAQT
TAF AMD
PAQT 310654Z 3107/0106 02008KT 3SM BR BKN002
     FM311200 03008KT 1/2SM FG OVC002
     FM311600 03008KT 4SM BR OVC003
     FM311800 03008KT P6SM OVC006
     FM312100 03008KT P6SM BKN010=

USA.gov is the U.S. government's official web portal to all federal, state and local government web resources and services.